createdAt,value
2018-03-04T00:01:45.752Z,58.05
2018-03-04T00:04:14.010Z,57.84
2018-03-04T00:06:43.040Z,59.31
2018-03-04T00:09:11.296Z,59.88
2018-03-04T00:11:40.327Z,59.42
2018-03-04T00:14:08.579Z,59.36
2018-03-04T00:16:36.857Z,59.04
2018-03-04T00:19:05.103Z,59.91
2018-03-04T00:21:33.372Z,58.58
2018-03-04T00:24:01.631Z,60.34
2018-03-04T00:26:29.895Z,59.25
2018-03-04T00:28:58.167Z,58.28
2018-03-04T00:31:26.438Z,57.91
2018-03-04T00:33:54.683Z,58.68
2018-03-04T00:36:22.968Z,58.12
2018-03-04T00:38:51.228Z,58.39
2018-03-04T00:41:19.487Z,59.70
2018-03-04T00:43:47.755Z,59.95
2018-03-04T00:46:16.780Z,60.78
2018-03-04T00:48:45.057Z,60.16
2018-03-04T00:51:13.314Z,59.16
2018-03-04T00:53:41.583Z,58.87
2018-03-04T00:56:09.839Z,58.45
2018-03-04T00:58:38.107Z,58.41
2018-03-04T01:01:06.368Z,57.76
2018-03-04T01:03:34.643Z,58.07
2018-03-04T01:06:02.903Z,58.00
2018-03-04T01:08:31.174Z,57.78
2018-03-04T01:10:59.473Z,57.89
2018-03-04T01:13:27.744Z,57.61
2018-03-04T01:15:56.003Z,57.19
2018-03-04T01:18:24.282Z,57.50
2018-03-04T01:20:52.539Z,57.59
2018-03-04T01:23:20.811Z,57.23
2018-03-04T01:25:49.080Z,56.97
2018-03-04T01:28:17.351Z,57.91
2018-03-04T01:30:46.380Z,59.77
2018-03-04T01:33:14.652Z,59.41
2018-03-04T01:35:43.671Z,59.43
2018-03-04T01:38:11.944Z,60.02
2018-03-04T01:40:41.720Z,59.79
2018-03-04T01:43:09.987Z,60.32
2018-03-04T01:45:38.239Z,59.95
2018-03-04T01:48:07.290Z,59.81
2018-03-04T01:50:35.557Z,60.47
2018-03-04T01:53:03.827Z,60.48
2018-03-04T01:55:32.863Z,59.67
2018-03-04T01:58:01.119Z,59.61
2018-03-04T02:00:30.161Z,59.22
2018-03-04T02:02:58.415Z,59.17
2018-03-04T02:05:27.447Z,60.22
2018-03-04T02:07:55.703Z,60.31
2018-03-04T02:10:25.756Z,59.55
2018-03-04T02:12:54.012Z,59.48
2018-03-04T02:15:22.279Z,59.90
2018-03-04T02:17:50.536Z,59.54
2018-03-04T02:20:18.803Z,59.43
2018-03-04T02:22:47.059Z,59.78
2018-03-04T02:25:15.331Z,59.37
2018-03-04T02:27:43.584Z,59.35
2018-03-04T02:30:11.856Z,58.64
2018-03-04T02:32:40.112Z,58.79
2018-03-04T02:35:10.381Z,58.73
2018-03-04T02:37:38.636Z,58.17
2018-03-04T02:40:06.903Z,58.14
2018-03-04T02:42:35.163Z,58.62
2018-03-04T02:45:03.434Z,60.83
2018-03-04T02:47:31.692Z,59.82
2018-03-04T02:49:59.958Z,60.93
2018-03-04T02:52:28.219Z,60.20
2018-03-04T02:54:56.492Z,59.82
2018-03-04T02:57:24.752Z,62.36
2018-03-04T02:59:53.811Z,63.46
2018-03-04T03:02:22.063Z,62.19
2018-03-04T03:04:50.325Z,61.82
2018-03-04T03:07:18.591Z,63.23
2018-03-04T03:09:46.851Z,63.51
2018-03-04T03:12:15.118Z,62.11
2018-03-04T03:14:43.370Z,62.93
2018-03-04T03:17:11.638Z,61.87
2018-03-04T03:19:40.663Z,60.66
2018-03-04T03:22:08.984Z,60.38
2018-03-04T03:24:37.251Z,59.90
2018-03-04T03:27:06.292Z,59.54
2018-03-04T03:29:34.554Z,58.92
2018-03-04T03:32:03.587Z,60.67
2018-03-04T03:34:31.840Z,60.81
2018-03-04T03:37:00.880Z,61.76
2018-03-04T03:39:29.139Z,62.04
2018-03-04T03:41:58.171Z,61.74
2018-03-04T03:44:26.422Z,64.35
2018-03-04T03:46:54.695Z,65.70
2018-03-04T03:49:22.955Z,65.46
2018-03-04T03:51:51.226Z,64.21
2018-03-04T03:54:19.487Z,64.06
2018-03-04T03:56:48.516Z,63.89
2018-03-04T03:59:16.776Z,63.33
2018-03-04T04:01:45.812Z,64.59
2018-03-04T04:04:14.079Z,64.38
2018-03-04T04:06:44.020Z,64.27
2018-03-04T04:09:12.284Z,64.51
2018-03-04T04:11:40.556Z,63.69
2018-03-04T04:14:08.811Z,63.13
2018-03-04T04:16:37.080Z,63.26
2018-03-04T04:19:05.348Z,61.83
2018-03-04T04:21:34.387Z,62.27
2018-03-04T04:24:02.643Z,62.62
2018-03-04T04:26:31.680Z,63.97
2018-03-04T04:28:59.939Z,65.78
2018-03-04T04:31:28.968Z,64.52
2018-03-04T04:33:57.226Z,64.87
2018-03-04T04:36:26.261Z,63.09
2018-03-04T04:38:54.515Z,61.85
2018-03-04T04:41:22.787Z,61.96
2018-03-04T04:43:51.044Z,61.85
2018-03-04T04:46:19.322Z,62.05
2018-03-04T04:48:47.596Z,61.76
2018-03-04T04:51:15.859Z,63.69
2018-03-04T04:53:44.887Z,63.92
2018-03-04T04:56:13.165Z,64.74
2018-03-04T04:58:42.183Z,65.93
2018-03-04T05:01:10.447Z,65.67
2018-03-04T05:03:38.703Z,67.12
2018-03-04T05:06:06.979Z,68.19
2018-03-04T05:08:35.235Z,68.04
2018-03-04T05:11:03.499Z,67.62
2018-03-04T05:13:31.756Z,66.21
2018-03-04T05:16:00.027Z,65.75
2018-03-04T05:18:28.283Z,65.88
2018-03-04T05:20:57.319Z,65.88
2018-03-04T05:23:25.579Z,65.66
2018-03-04T05:25:53.843Z,65.70
2018-03-04T05:28:22.102Z,64.64
2018-03-04T05:30:50.367Z,66.15
2018-03-04T05:33:18.631Z,64.45
2018-03-04T05:35:46.887Z,66.28
2018-03-04T05:38:15.178Z,67.31
2018-03-04T05:40:43.436Z,66.92
2018-03-04T05:43:11.709Z,66.58
2018-03-04T05:45:39.959Z,66.31
2018-03-04T05:48:08.998Z,66.12
2018-03-04T05:50:37.263Z,66.14
2018-03-04T05:53:05.534Z,66.68
2018-03-04T05:55:34.560Z,67.26
2018-03-04T05:58:02.823Z,67.55
2018-03-04T06:00:31.083Z,68.37
2018-03-04T06:02:59.350Z,68.89
2018-03-04T06:05:27.606Z,68.43
2018-03-04T06:07:56.639Z,68.66
2018-03-04T06:10:24.905Z,66.59
2018-03-04T06:12:53.940Z,67.11
2018-03-04T06:15:22.192Z,67.19
2018-03-04T06:17:51.239Z,66.91
2018-03-04T06:20:19.499Z,66.90
2018-03-04T06:22:47.771Z,67.85
2018-03-04T06:25:16.800Z,67.59
2018-03-04T06:27:45.066Z,67.39
2018-03-04T06:30:14.092Z,67.50
2018-03-04T06:32:42.368Z,67.56
2018-03-04T06:35:10.627Z,67.93
2018-03-04T06:37:38.895Z,67.61
2018-03-04T06:40:07.155Z,67.29
2018-03-04T06:42:35.423Z,67.66
2018-03-04T06:45:03.687Z,66.81
2018-03-04T06:47:31.959Z,66.32
2018-03-04T06:50:01.262Z,65.02
2018-03-04T06:52:30.242Z,64.55
2018-03-04T06:54:58.508Z,64.05
2018-03-04T06:57:26.784Z,64.74
2018-03-04T06:59:56.719Z,63.94
2018-03-04T07:02:24.991Z,64.75
2018-03-04T07:04:54.026Z,65.39
2018-03-04T07:07:22.295Z,65.78
2018-03-04T07:09:51.332Z,64.97
2018-03-04T07:12:19.607Z,64.54
2018-03-04T07:14:47.868Z,64.71
2018-03-04T07:17:16.910Z,63.70
2018-03-04T07:19:45.175Z,64.18
2018-03-04T07:22:14.218Z,63.96
2018-03-04T07:24:42.483Z,62.85
2018-03-04T07:27:10.747Z,62.89
2018-03-04T07:29:39.822Z,61.89
2018-03-04T07:32:08.795Z,60.61
2018-03-04T07:34:37.050Z,60.39
2018-03-04T07:37:06.080Z,60.43
2018-03-04T07:39:34.327Z,60.34
2018-03-04T07:42:02.596Z,60.14
2018-03-04T07:44:30.862Z,60.07
2018-03-04T07:46:59.139Z,61.12
2018-03-04T07:49:27.391Z,63.01
2018-03-04T07:51:55.655Z,63.40
2018-03-04T07:54:23.907Z,63.95
2018-03-04T07:56:52.171Z,65.07
2018-03-04T07:59:20.423Z,65.00
2018-03-04T08:01:49.503Z,64.07
2018-03-04T08:04:18.515Z,62.98
2018-03-04T08:06:46.780Z,64.07
2018-03-04T08:09:15.798Z,63.70
2018-03-04T08:11:44.076Z,62.55
2018-03-04T08:14:13.100Z,62.62
2018-03-04T08:16:41.352Z,63.44
2018-03-04T08:19:10.384Z,63.04
2018-03-04T08:21:38.640Z,62.30
2018-03-04T08:24:07.673Z,63.10
2018-03-04T08:26:54.640Z,62.27
2018-03-04T08:29:22.895Z,61.58
2018-03-04T08:31:51.163Z,60.64
2018-03-04T08:34:19.423Z,60.33
2018-03-04T08:36:47.677Z,60.73
2018-03-04T08:39:15.939Z,61.30
2018-03-04T08:41:44.195Z,63.04
2018-03-04T08:44:13.234Z,64.49
2018-03-04T08:46:41.495Z,63.38
2018-03-04T08:49:10.522Z,64.23
2018-03-04T08:51:38.774Z,62.41
2018-03-04T08:54:07.039Z,61.80
2018-03-04T08:56:35.308Z,60.73
2018-03-04T08:59:03.568Z,61.75
2018-03-04T09:01:31.831Z,60.12
2018-03-04T09:04:00.916Z,59.11
2018-03-04T09:06:29.135Z,58.84
2018-03-04T09:08:58.178Z,58.98
2018-03-04T09:11:26.433Z,60.15
2018-03-04T09:13:55.513Z,60.52
2018-03-04T09:16:23.722Z,59.13
2018-03-04T09:18:52.755Z,57.71
2018-03-04T09:21:21.011Z,58.38
2018-03-04T09:23:50.047Z,58.96
2018-03-04T09:26:21.600Z,59.54
2018-03-04T09:28:50.626Z,62.53
2018-03-04T09:31:18.890Z,62.97
2018-03-04T09:33:47.922Z,64.31
2018-03-04T09:36:16.183Z,65.45
2018-03-04T09:38:45.211Z,65.30
2018-03-04T09:41:13.459Z,66.43
2018-03-04T09:43:42.208Z,65.95
2018-03-04T09:46:10.459Z,63.74
2018-03-04T09:48:41.436Z,61.11
2018-03-04T09:51:09.688Z,60.71
2018-03-04T09:53:37.959Z,61.22
2018-03-04T09:56:08.127Z,60.51
2018-03-04T09:58:37.176Z,60.33
2018-03-04T10:01:05.431Z,60.23
2018-03-04T10:03:33.700Z,62.33
2018-03-04T10:06:02.719Z,63.10
2018-03-04T10:08:31.747Z,63.85
2018-03-04T10:11:00.815Z,65.11
2018-03-04T10:13:29.083Z,66.57
2018-03-04T10:15:57.336Z,67.67
2018-03-04T10:18:25.600Z,67.44
2018-03-04T10:20:53.849Z,67.91
2018-03-04T10:23:22.120Z,67.45
2018-03-04T10:25:50.375Z,71.09
2018-03-04T10:28:18.644Z,71.82
2018-03-04T10:30:48.240Z,72.21
2018-03-04T10:33:16.499Z,70.63
2018-03-04T10:35:54.659Z,69.24
2018-03-04T10:38:22.915Z,68.12
2018-03-04T10:40:51.167Z,66.07
2018-03-04T10:43:29.343Z,64.92
2018-03-04T10:46:14.893Z,65.12
2018-03-04T10:48:43.147Z,65.33
2018-03-04T10:51:12.172Z,64.48
2018-03-04T10:54:00.475Z,64.05
2018-03-04T10:56:32.302Z,64.08
2018-03-04T10:59:01.511Z,64.00
2018-03-04T11:04:45.293Z,63.70
2018-03-04T11:07:14.312Z,62.94
2018-03-04T11:09:42.640Z,63.64
2018-03-04T11:12:10.843Z,62.97
2018-03-04T11:14:39.103Z,63.61
2018-03-04T11:17:07.415Z,61.64
2018-03-04T11:19:38.632Z,62.13
2018-03-04T11:22:06.891Z,63.87
2018-03-04T11:24:35.924Z,65.83
2018-03-04T11:27:04.184Z,65.26
2018-03-04T11:29:33.211Z,65.72
2018-03-04T11:32:01.473Z,65.70
2018-03-04T11:34:30.512Z,64.80
2018-03-04T11:36:58.763Z,64.54
2018-03-04T11:39:27.795Z,66.82
2018-03-04T11:41:56.048Z,67.22
2018-03-04T11:44:24.315Z,68.80
2018-03-04T11:46:52.576Z,67.91
2018-03-04T11:49:20.843Z,69.22
2018-03-04T11:51:49.107Z,69.52
2018-03-04T11:54:18.151Z,69.79
2018-03-04T11:56:46.400Z,69.22
2018-03-04T11:59:14.667Z,71.20
2018-03-04T12:01:42.923Z,71.73
2018-03-04T12:04:11.200Z,69.64
2018-03-04T12:06:39.458Z,69.48
2018-03-04T12:09:08.492Z,69.71
2018-03-04T12:11:36.747Z,67.25
2018-03-04T12:14:05.016Z,65.80
2018-03-04T12:16:33.287Z,65.06
2018-03-04T12:19:01.552Z,62.43
2018-03-04T12:21:29.808Z,61.27
2018-03-04T12:23:58.912Z,61.46
2018-03-04T12:26:27.879Z,61.99
2018-03-04T12:28:56.147Z,61.90
2018-03-04T12:31:24.408Z,61.67
2018-03-04T12:33:53.440Z,59.94
2018-03-04T12:36:21.696Z,59.88
2018-03-04T12:38:50.732Z,59.28
2018-03-04T12:41:18.999Z,59.22
2018-03-04T12:43:48.040Z,57.64
2018-03-04T12:46:16.293Z,57.53
2018-03-04T12:48:44.563Z,56.55
2018-03-04T12:51:13.593Z,57.91
2018-03-04T12:53:41.870Z,57.64
2018-03-04T12:56:10.904Z,59.33
2018-03-04T12:58:39.175Z,62.53
2018-03-04T13:01:07.440Z,63.55
2018-03-04T13:03:36.464Z,63.39
2018-03-04T13:06:04.735Z,62.76
2018-03-04T13:08:33.760Z,63.77
2018-03-04T13:11:02.028Z,64.54
2018-03-04T13:13:31.943Z,64.88
2018-03-04T13:16:00.215Z,64.30
2018-03-04T13:18:28.484Z,63.46
2018-03-04T13:20:56.750Z,65.32
2018-03-04T13:23:25.012Z,66.11
2018-03-04T13:25:54.047Z,65.99
2018-03-04T13:28:22.302Z,65.18
2018-03-04T13:30:51.347Z,68.58
2018-03-04T13:33:19.607Z,70.95
2018-03-04T13:35:48.648Z,73.77
2018-03-04T13:38:16.903Z,72.09
2018-03-04T13:40:45.927Z,73.01
2018-03-04T13:43:14.187Z,73.05
2018-03-04T13:45:43.216Z,73.27
2018-03-04T13:48:11.471Z,72.21
2018-03-04T13:50:39.736Z,72.19
2018-03-04T13:53:07.991Z,73.02
2018-03-04T13:55:36.255Z,72.98
2018-03-04T13:58:05.283Z,73.93
2018-03-04T14:00:33.547Z,74.41
2018-03-04T14:03:02.563Z,72.97
2018-03-04T14:05:30.853Z,72.02
2018-03-04T14:07:59.139Z,68.66
2018-03-04T14:10:28.168Z,67.54
2018-03-04T14:12:56.428Z,67.23
2018-03-04T14:15:25.459Z,65.79
2018-03-04T14:17:53.723Z,64.80
2018-03-04T14:20:21.999Z,63.89
2018-03-04T14:22:50.255Z,61.28
2018-03-04T14:25:18.535Z,59.04
2018-03-04T14:27:46.799Z,57.72
2018-03-04T14:30:15.068Z,57.39
2018-03-04T14:32:44.095Z,57.85
2018-03-04T14:35:12.364Z,57.46
2018-03-04T14:37:41.389Z,56.84
2018-03-04T14:40:09.656Z,56.99
2018-03-04T14:42:38.682Z,56.78
2018-03-04T14:45:06.947Z,58.60
2018-03-04T14:47:35.981Z,57.17
2018-03-04T14:50:04.488Z,57.21
2018-03-04T14:52:32.753Z,57.23
2018-03-04T14:55:01.023Z,56.41
2018-03-04T14:57:30.046Z,59.05
2018-03-04T14:59:58.319Z,58.37
2018-03-04T15:02:27.347Z,58.24
2018-03-04T15:04:55.635Z,59.74
2018-03-04T15:07:23.892Z,59.51
2018-03-04T15:09:52.923Z,59.91
2018-03-04T15:12:21.287Z,60.38
2018-03-04T15:14:49.567Z,60.51
2018-03-04T15:17:17.828Z,60.37
2018-03-04T15:19:46.096Z,60.73
2018-03-04T15:22:14.356Z,60.86
2018-03-04T15:24:42.624Z,60.51
2018-03-04T15:27:10.884Z,62.14
2018-03-04T15:29:39.162Z,61.77
2018-03-04T15:32:07.423Z,60.47
2018-03-04T15:34:35.696Z,61.88
2018-03-04T15:37:03.959Z,61.92
2018-03-04T15:39:32.223Z,62.37
2018-03-04T15:42:00.505Z,62.20
2018-03-04T15:44:28.788Z,61.85
2018-03-04T15:46:57.059Z,62.95
2018-03-04T15:49:25.324Z,62.59
2018-03-04T15:51:54.359Z,63.41
2018-03-04T15:54:24.571Z,63.78
2018-03-04T15:56:53.595Z,64.01
2018-03-04T15:59:21.859Z,63.68
2018-03-04T16:01:50.891Z,64.27
2018-03-04T16:04:21.116Z,63.78
2018-03-04T16:06:49.384Z,63.81
2018-03-04T16:09:19.312Z,63.49
2018-03-04T16:11:51.408Z,63.99
2018-03-04T16:14:19.675Z,66.25
2018-03-04T16:16:48.712Z,66.44
2018-03-04T16:19:16.962Z,65.74
2018-03-04T16:21:45.997Z,66.12
2018-03-04T16:24:14.256Z,64.50
2018-03-04T16:26:43.282Z,64.43
2018-03-04T16:29:11.543Z,65.19
2018-03-04T16:31:39.807Z,66.00
2018-03-04T16:34:08.072Z,65.73
2018-03-04T16:36:36.339Z,66.32
2018-03-04T16:39:04.595Z,67.96
2018-03-04T16:41:32.887Z,69.47
2018-03-04T16:44:02.819Z,69.89
2018-03-04T16:46:33.403Z,69.18
2018-03-04T16:49:01.659Z,67.09
2018-03-04T16:51:30.702Z,67.93
2018-03-04T16:53:58.955Z,67.00
2018-03-04T16:56:27.987Z,65.37
2018-03-04T16:58:56.298Z,63.95
2018-03-04T17:01:26.200Z,63.46
2018-03-04T17:03:54.468Z,63.97
2018-03-04T17:06:24.407Z,64.19
2018-03-04T17:09:05.120Z,63.97
2018-03-04T17:11:37.486Z,63.55
2018-03-04T17:14:06.676Z,63.71
2018-03-04T17:16:34.972Z,65.74
2018-03-04T17:19:03.231Z,63.73
2018-03-04T17:21:31.492Z,63.17
2018-03-04T17:23:59.752Z,62.66
2018-03-04T17:26:28.028Z,63.29
2018-03-04T17:28:56.305Z,63.49
2018-03-04T17:31:25.348Z,63.28
2018-03-04T17:33:53.615Z,63.77
2018-03-04T17:36:21.888Z,62.88
2018-03-04T17:38:50.152Z,64.13
2018-03-04T17:41:18.419Z,65.09
2018-03-04T17:43:46.680Z,67.38
2018-03-04T17:46:14.948Z,66.27
2018-03-04T17:48:43.215Z,66.31
2018-03-04T17:51:12.248Z,67.17
2018-03-04T17:53:40.515Z,66.61
2018-03-04T17:56:09.539Z,69.50
2018-03-04T17:58:37.800Z,70.52
2018-03-04T18:01:06.074Z,70.23
2018-03-04T18:03:34.392Z,68.52
2018-03-04T18:06:02.592Z,67.17
2018-03-04T18:08:30.879Z,69.04
2018-03-04T18:10:59.144Z,70.76
2018-03-04T18:13:28.186Z,69.36
2018-03-04T18:15:56.435Z,68.68
2018-03-04T18:18:25.471Z,68.84
2018-03-04T18:20:53.767Z,68.94
2018-03-04T18:23:22.031Z,69.28
2018-03-04T18:25:51.059Z,67.58
2018-03-04T18:28:19.335Z,66.85
2018-03-04T18:30:47.799Z,66.29
2018-03-04T18:33:16.086Z,67.14
2018-03-04T18:35:44.364Z,67.36
2018-03-04T18:38:12.627Z,66.47
2018-03-04T18:40:40.896Z,66.76
2018-03-04T18:43:09.160Z,65.85
2018-03-04T18:45:38.184Z,64.50
2018-03-04T18:48:06.459Z,64.74
2018-03-04T18:50:35.483Z,63.89
2018-03-04T18:53:03.748Z,63.97
2018-03-04T18:55:32.772Z,64.95
2018-03-04T18:58:01.041Z,64.32
2018-03-04T19:00:30.067Z,66.38
2018-03-04T19:02:58.359Z,66.29
2018-03-04T19:05:26.620Z,67.17
2018-03-04T19:07:55.640Z,68.13
2018-03-04T19:10:23.923Z,68.26
2018-03-04T19:12:52.946Z,68.27
2018-03-04T19:15:21.323Z,68.25
2018-03-04T19:17:49.584Z,68.37
2018-03-04T19:20:17.848Z,68.73
2018-03-04T19:22:46.108Z,67.93
2018-03-04T19:25:14.376Z,67.75
2018-03-04T19:27:42.636Z,67.03
2018-03-04T19:30:10.895Z,68.38
2018-03-04T19:32:39.163Z,68.72
2018-03-04T19:35:07.428Z,68.85
2018-03-04T19:37:36.451Z,69.12
2018-03-04T19:40:04.711Z,68.37
2018-03-04T19:42:33.750Z,67.59
2018-03-04T19:45:02.004Z,67.95
2018-03-04T19:47:31.035Z,67.74
2018-03-04T19:49:59.337Z,67.69
2018-03-04T19:52:27.599Z,67.37
2018-03-04T19:54:55.863Z,68.79
2018-03-04T19:57:24.120Z,67.95
2018-03-04T19:59:52.407Z,66.06
2018-03-04T20:02:20.664Z,66.65
2018-03-04T20:04:48.932Z,67.15
2018-03-04T20:07:17.952Z,65.97
2018-03-04T20:09:46.214Z,66.65
2018-03-04T20:12:14.469Z,66.22
2018-03-04T20:14:42.740Z,65.63
2018-03-04T20:17:11.009Z,64.74
2018-03-04T20:19:39.704Z,67.02
2018-03-04T20:22:07.965Z,68.10
2018-03-04T20:24:36.227Z,66.83
2018-03-04T20:27:04.491Z,66.84
2018-03-04T20:29:32.760Z,66.37
2018-03-04T20:32:01.076Z,65.11
2018-03-04T20:34:29.344Z,64.51
2018-03-04T20:36:57.602Z,64.58
2018-03-04T20:39:26.627Z,63.74
2018-03-04T20:41:54.892Z,64.31
2018-03-04T20:44:23.157Z,64.39
2018-03-04T20:46:51.436Z,63.58
2018-03-04T20:49:19.719Z,64.30
2018-03-04T20:51:47.991Z,64.49
2018-03-04T20:54:16.249Z,64.53
2018-03-04T20:56:45.290Z,63.39
2018-03-04T20:59:13.548Z,62.64
2018-03-04T21:01:41.842Z,62.26
2018-03-04T21:04:10.107Z,61.64
2018-03-04T21:06:39.155Z,60.85
2018-03-04T21:09:07.411Z,60.19
2018-03-04T21:11:36.462Z,60.17
2018-03-04T21:14:04.715Z,61.39
2018-03-04T21:16:32.971Z,63.08
2018-03-04T21:19:01.239Z,62.09
2018-03-04T21:21:29.504Z,62.20
2018-03-04T21:23:57.764Z,62.81
2018-03-04T21:26:26.039Z,63.04
2018-03-04T21:28:55.065Z,62.20
2018-03-04T21:31:23.327Z,61.12
2018-03-04T21:33:51.592Z,60.73
2018-03-04T21:36:19.918Z,61.33
2018-03-04T21:38:48.127Z,59.79
2018-03-04T21:41:16.413Z,59.21
2018-03-04T21:43:44.663Z,58.50
2018-03-04T21:46:12.937Z,58.94
2018-03-04T21:48:41.200Z,58.30
2018-03-04T21:51:09.468Z,59.84
2018-03-04T21:53:37.727Z,60.84
2018-03-04T21:56:06.784Z,60.05
2018-03-04T21:58:35.048Z,58.95
2018-03-04T22:01:03.340Z,58.96
2018-03-04T22:03:31.604Z,59.19
2018-03-04T22:06:00.644Z,58.37
2018-03-04T22:08:28.925Z,57.91
2018-03-04T22:10:57.183Z,59.03
2018-03-04T22:13:26.900Z,59.27
2018-03-04T22:15:55.934Z,59.24
2018-03-04T22:18:24.200Z,58.42
2018-03-04T22:20:53.236Z,59.06
2018-03-04T22:23:21.494Z,59.25
2018-03-04T22:25:50.521Z,60.12
2018-03-04T22:28:18.792Z,59.03
2018-03-04T22:30:47.812Z,59.69
2018-03-04T22:33:16.080Z,58.48
2018-03-04T22:35:45.124Z,58.63
2018-03-04T22:38:13.397Z,58.46
2018-03-04T22:40:41.656Z,58.53
2018-03-04T22:43:09.950Z,58.30
2018-03-04T22:45:38.977Z,58.00
2018-03-04T22:48:07.247Z,58.51
2018-03-04T22:50:36.283Z,60.02
2018-03-04T22:53:04.558Z,59.88
2018-03-04T22:55:33.576Z,60.56
2018-03-04T22:58:01.840Z,59.64
2018-03-04T23:00:30.873Z,58.57
2018-03-04T23:02:59.143Z,58.56
2018-03-04T23:05:27.404Z,59.46
2018-03-04T23:07:55.668Z,60.42
2018-03-04T23:10:23.933Z,60.29
2018-03-04T23:12:52.198Z,59.94
2018-03-04T23:15:21.225Z,60.59
2018-03-04T23:17:49.495Z,59.28
2018-03-04T23:20:17.756Z,60.18
2018-03-04T23:22:46.029Z,59.55
2018-03-04T23:25:14.293Z,60.63
2018-03-04T23:27:42.561Z,61.07
2018-03-04T23:30:10.823Z,60.34
2018-03-04T23:32:39.874Z,58.91
2018-03-04T23:35:09.027Z,58.16
2018-03-04T23:37:37.299Z,57.63
2018-03-04T23:40:05.561Z,57.58
2018-03-04T23:42:33.828Z,59.32
2018-03-04T23:45:02.084Z,59.46
2018-03-04T23:47:30.359Z,57.82
2018-03-04T23:49:58.630Z,59.21
2018-03-04T23:52:26.900Z,59.93
2018-03-04T23:54:55.924Z,58.43
2018-03-04T23:57:24.199Z,57.04
2018-03-04T23:59:52.455Z,58.73
